Hlavní strana
METAR-TAF:

METAR-TAF

Letiště :

Lawrenceville-Vincennes International Airport

Lawrenceville, Illinois, Spojené státy americké

zeměpisná šířka: 38-45-38N, zeměpisná délka: 087-35-56W, výška: 131 m

Aktuální stav počasí

Zpráva byla vytvořena před 21 minutami, v 00:53 UTC
Západoseverozápadní vítr 8 kt
Teplota 22°C
Vlhkost vzduchu 78%
Tlak 1015 hPa
Viditelnost: 16.1 km
Skoro jasno ve výšce 3800 ft
Zataženo ve výšce 5000 ft

METAR: KLWV 220053Z AUTO 29008KT 10SM FEW038 OVC050 22/18 A2997 RMK AO2 SLP145 T02220183

Čas: 20:14 (01:14 UTC)


TAF: chybějící

Stav a předpovědi počasí z více než 4 000 letišť (zprávy METAR a TAF).

Červené a žluté tečky na mapě představují dostupné meteorologické stanice.

Když kurzor umístíte na tečku, zobrazí se název stanice.

Pak kliknutím zobrazíte stav a předpověď počasí.

Chcete-li změnit mapu, kliknutím na zelené tlačítko se znaménkem +mapu přiblížíte, kliknutím na zelené tlačítko se znaménkem – mapu oddálíte a kliknutím na zelené šipky přejdete na sousední mapy.


METAR-TAF: